sensor_id;sensor_type;location;lat;lon;timestamp;P1;durP1;ratioP1;P2;durP2;ratioP2
24745;SDS011;12845;52.042;6.838;2022-08-07T00:01:30;11.05;;;7.10;;
24745;SDS011;12845;52.042;6.838;2022-08-07T00:03:55;8.13;;;6.00;;
24745;SDS011;12845;52.042;6.838;2022-08-07T00:06:21;9.10;;;6.38;;
24745;SDS011;12845;52.042;6.838;2022-08-07T00:08:46;8.45;;;6.15;;
24745;SDS011;12845;52.042;6.838;2022-08-07T00:11:12;9.48;;;6.38;;
24745;SDS011;12845;52.042;6.838;2022-08-07T00:13:37;9.73;;;6.13;;
24745;SDS011;12845;52.042;6.838;2022-08-07T00:16:03;7.97;;;5.47;;
24745;SDS011;12845;52.042;6.838;2022-08-07T00:18:29;7.53;;;5.30;;
24745;SDS011;12845;52.042;6.838;2022-08-07T00:20:59;8.95;;;5.82;;
24745;SDS011;12845;52.042;6.838;2022-08-07T00:23:25;8.40;;;6.22;;
24745;SDS011;12845;52.042;6.838;2022-08-07T00:25:51;8.43;;;6.85;;
24745;SDS011;12845;52.042;6.838;2022-08-07T00:28:16;11.23;;;6.93;;
24745;SDS011;12845;52.042;6.838;2022-08-07T00:30:41;8.90;;;6.72;;
24745;SDS011;12845;52.042;6.838;2022-08-07T00:33:07;8.73;;;6.22;;
24745;SDS011;12845;52.042;6.838;2022-08-07T00:35:33;9.73;;;6.05;;
24745;SDS011;12845;52.042;6.838;2022-08-07T00:37:58;8.75;;;6.47;;
24745;SDS011;12845;52.042;6.838;2022-08-07T00:40:24;10.00;;;6.60;;
24745;SDS011;12845;52.042;6.838;2022-08-07T00:42:49;8.98;;;6.68;;
24745;SDS011;12845;52.042;6.838;2022-08-07T00:45:15;9.38;;;6.80;;
24745;SDS011;12845;52.042;6.838;2022-08-07T00:47:40;9.98;;;7.30;;
24745;SDS011;12845;52.042;6.838;2022-08-07T00:50:06;9.32;;;6.60;;
24745;SDS011;12845;52.042;6.838;2022-08-07T00:52:31;11.15;;;6.72;;
24745;SDS011;12845;52.042;6.838;2022-08-07T00:54:57;10.35;;;7.30;;
24745;SDS011;12845;52.042;6.838;2022-08-07T00:57:22;9.48;;;6.95;;
24745;SDS011;12845;52.042;6.838;2022-08-07T00:59:49;7.90;;;6.38;;
24745;SDS011;12845;52.042;6.838;2022-08-07T01:02:15;9.10;;;7.20;;
24745;SDS011;12845;52.042;6.838;2022-08-07T01:04:41;10.00;;;7.18;;
24745;SDS011;12845;52.042;6.838;2022-08-07T01:07:07;11.05;;;7.53;;
24745;SDS011;12845;52.042;6.838;2022-08-07T01:09:32;13.05;;;7.68;;
24745;SDS011;12845;52.042;6.838;2022-08-07T01:11:58;13.15;;;7.78;;
24745;SDS011;12845;52.042;6.838;2022-08-07T01:14:24;11.55;;;8.10;;
24745;SDS011;12845;52.042;6.838;2022-08-07T01:16:50;10.63;;;7.95;;
24745;SDS011;12845;52.042;6.838;2022-08-07T01:19:17;10.07;;;7.13;;
24745;SDS011;12845;52.042;6.838;2022-08-07T01:21:43;10.65;;;7.90;;
24745;SDS011;12845;52.042;6.838;2022-08-07T01:24:13;10.82;;;7.35;;
24745;SDS011;12845;52.042;6.838;2022-08-07T01:26:40;10.52;;;7.53;;
24745;SDS011;12845;52.042;6.838;2022-08-07T01:29:05;10.48;;;8.35;;
24745;SDS011;12845;52.042;6.838;2022-08-07T01:31:31;11.32;;;8.07;;
24745;SDS011;12845;52.042;6.838;2022-08-07T01:34:00;10.77;;;8.52;;
24745;SDS011;12845;52.042;6.838;2022-08-07T01:36:27;11.15;;;8.43;;
24745;SDS011;12845;52.042;6.838;2022-08-07T01:38:53;11.82;;;7.82;;
24745;SDS011;12845;52.042;6.838;2022-08-07T01:41:19;11.80;;;8.32;;
24745;SDS011;12845;52.042;6.838;2022-08-07T01:43:46;10.05;;;7.90;;
24745;SDS011;12845;52.042;6.838;2022-08-07T01:46:13;10.35;;;8.05;;
24745;SDS011;12845;52.042;6.838;2022-08-07T01:48:40;10.85;;;7.88;;
24745;SDS011;12845;52.042;6.838;2022-08-07T01:51:12;10.43;;;7.15;;
24745;SDS011;12845;52.042;6.838;2022-08-07T01:53:51;11.38;;;7.45;;
24745;SDS011;12845;52.042;6.838;2022-08-07T01:56:23;11.23;;;7.93;;
24745;SDS011;12845;52.042;6.838;2022-08-07T01:58:52;9.77;;;7.07;;
24745;SDS011;12845;52.042;6.838;2022-08-07T02:01:24;9.90;;;7.45;;
24745;SDS011;12845;52.042;6.838;2022-08-07T02:03:56;13.27;;;7.75;;
24745;SDS011;12845;52.042;6.838;2022-08-07T02:06:28;10.00;;;6.90;;
24745;SDS011;12845;52.042;6.838;2022-08-07T02:08:54;12.80;;;7.40;;
24745;SDS011;12845;52.042;6.838;2022-08-07T02:11:20;10.02;;;7.38;;
24745;SDS011;12845;52.042;6.838;2022-08-07T02:13:46;9.80;;;7.53;;
24745;SDS011;12845;52.042;6.838;2022-08-07T02:16:13;11.23;;;7.50;;
24745;SDS011;12845;52.042;6.838;2022-08-07T02:18:38;9.77;;;7.15;;
24745;SDS011;12845;52.042;6.838;2022-08-07T02:21:06;9.98;;;7.47;;
24745;SDS011;12845;52.042;6.838;2022-08-07T02:23:32;11.38;;;7.53;;
24745;SDS011;12845;52.042;6.838;2022-08-07T02:26:00;10.07;;;7.30;;
24745;SDS011;12845;52.042;6.838;2022-08-07T02:28:29;11.63;;;7.88;;
24745;SDS011;12845;52.042;6.838;2022-08-07T02:30:55;10.05;;;7.40;;
24745;SDS011;12845;52.042;6.838;2022-08-07T02:33:23;10.80;;;7.43;;
24745;SDS011;12845;52.042;6.838;2022-08-07T02:35:50;11.90;;;7.80;;
24745;SDS011;12845;52.042;6.838;2022-08-07T02:38:17;10.35;;;7.45;;
24745;SDS011;12845;52.042;6.838;2022-08-07T02:40:46;11.45;;;8.18;;
24745;SDS011;12845;52.042;6.838;2022-08-07T02:43:12;10.18;;;7.60;;
24745;SDS011;12845;52.042;6.838;2022-08-07T02:45:39;11.40;;;7.50;;
24745;SDS011;12845;52.042;6.838;2022-08-07T02:48:07;9.77;;;7.68;;
24745;SDS011;12845;52.042;6.838;2022-08-07T02:50:33;10.95;;;6.85;;
24745;SDS011;12845;52.042;6.838;2022-08-07T02:53:05;10.90;;;7.40;;
24745;SDS011;12845;52.042;6.838;2022-08-07T02:55:37;10.52;;;7.53;;
24745;SDS011;12845;52.042;6.838;2022-08-07T02:58:10;9.40;;;7.15;;
24745;SDS011;12845;52.042;6.838;2022-08-07T03:00:37;10.80;;;7.85;;
24745;SDS011;12845;52.042;6.838;2022-08-07T03:03:06;10.65;;;6.93;;
24745;SDS011;12845;52.042;6.838;2022-08-07T03:05:33;11.70;;;7.82;;
24745;SDS011;12845;52.042;6.838;2022-08-07T03:08:00;10.80;;;7.50;;
24745;SDS011;12845;52.042;6.838;2022-08-07T03:10:31;10.32;;;7.50;;
24745;SDS011;12845;52.042;6.838;2022-08-07T03:13:00;12.52;;;7.60;;
24745;SDS011;12845;52.042;6.838;2022-08-07T03:15:27;9.95;;;7.15;;
24745;SDS011;12845;52.042;6.838;2022-08-07T03:17:53;12.35;;;8.32;;
24745;SDS011;12845;52.042;6.838;2022-08-07T03:20:20;10.27;;;7.28;;
24745;SDS011;12845;52.042;6.838;2022-08-07T03:22:47;10.88;;;7.53;;
24745;SDS011;12845;52.042;6.838;2022-08-07T03:25:14;10.75;;;7.68;;
24745;SDS011;12845;52.042;6.838;2022-08-07T03:27:42;12.68;;;8.45;;
24745;SDS011;12845;52.042;6.838;2022-08-07T03:30:08;12.07;;;8.00;;
24745;SDS011;12845;52.042;6.838;2022-08-07T03:32:38;11.50;;;8.70;;
24745;SDS011;12845;52.042;6.838;2022-08-07T03:35:10;13.77;;;8.75;;
24745;SDS011;12845;52.042;6.838;2022-08-07T03:37:37;13.30;;;9.13;;
24745;SDS011;12845;52.042;6.838;2022-08-07T03:40:05;11.93;;;9.25;;
24745;SDS011;12845;52.042;6.838;2022-08-07T03:42:32;12.73;;;8.88;;
24745;SDS011;12845;52.042;6.838;2022-08-07T03:44:59;13.27;;;8.65;;
24745;SDS011;12845;52.042;6.838;2022-08-07T03:47:27;11.95;;;8.68;;
24745;SDS011;12845;52.042;6.838;2022-08-07T03:49:54;11.30;;;8.82;;
24745;SDS011;12845;52.042;6.838;2022-08-07T03:52:24;12.43;;;8.48;;
24745;SDS011;12845;52.042;6.838;2022-08-07T03:54:53;13.95;;;10.07;;
24745;SDS011;12845;52.042;6.838;2022-08-07T03:57:22;13.20;;;9.63;;
24745;SDS011;12845;52.042;6.838;2022-08-07T03:59:49;12.10;;;9.18;;
24745;SDS011;12845;52.042;6.838;2022-08-07T04:02:18;12.50;;;9.17;;
24745;SDS011;12845;52.042;6.838;2022-08-07T04:04:43;12.05;;;9.27;;
24745;SDS011;12845;52.042;6.838;2022-08-07T04:07:09;15.27;;;10.05;;
24745;SDS011;12845;52.042;6.838;2022-08-07T04:09:35;16.70;;;9.90;;
24745;SDS011;12845;52.042;6.838;2022-08-07T04:12:01;11.90;;;8.80;;
24745;SDS011;12845;52.042;6.838;2022-08-07T04:14:26;14.50;;;9.60;;
24745;SDS011;12845;52.042;6.838;2022-08-07T04:16:52;14.25;;;10.13;;
24745;SDS011;12845;52.042;6.838;2022-08-07T04:19:18;14.73;;;10.65;;
24745;SDS011;12845;52.042;6.838;2022-08-07T04:21:43;14.15;;;10.38;;
24745;SDS011;12845;52.042;6.838;2022-08-07T04:24:09;14.80;;;9.82;;
24745;SDS011;12845;52.042;6.838;2022-08-07T04:26:38;15.95;;;10.25;;
24745;SDS011;12845;52.042;6.838;2022-08-07T04:29:05;15.20;;;9.35;;
24745;SDS011;12845;52.042;6.838;2022-08-07T04:34:01;13.07;;;9.60;;
24745;SDS011;12845;52.042;6.838;2022-08-07T04:36:27;13.43;;;9.88;;
24745;SDS011;12845;52.042;6.838;2022-08-07T04:38:52;15.98;;;10.38;;
24745;SDS011;12845;52.042;6.838;2022-08-07T04:41:18;14.23;;;10.13;;
24745;SDS011;12845;52.042;6.838;2022-08-07T04:43:43;16.13;;;10.38;;
24745;SDS011;12845;52.042;6.838;2022-08-07T04:46:12;14.48;;;10.48;;
24745;SDS011;12845;52.042;6.838;2022-08-07T04:54:05;15.45;;;10.80;;
24745;SDS011;12845;52.042;6.838;2022-08-07T04:57:01;16.15;;;11.68;;
24745;SDS011;12845;52.042;6.838;2022-08-07T05:04:34;16.02;;;11.88;;
24745;SDS011;12845;52.042;6.838;2022-08-07T05:09:45;17.92;;;12.70;;
24745;SDS011;12845;52.042;6.838;2022-08-07T05:12:15;16.90;;;12.50;;
24745;SDS011;12845;52.042;6.838;2022-08-07T05:14:44;19.02;;;12.07;;
24745;SDS011;12845;52.042;6.838;2022-08-07T05:17:12;18.30;;;12.55;;
24745;SDS011;12845;52.042;6.838;2022-08-07T05:19:41;16.10;;;12.13;;
24745;SDS011;12845;52.042;6.838;2022-08-07T05:22:16;18.77;;;12.63;;
24745;SDS011;12845;52.042;6.838;2022-08-07T05:24:44;19.65;;;13.35;;
24745;SDS011;12845;52.042;6.838;2022-08-07T05:27:11;16.35;;;12.18;;
24745;SDS011;12845;52.042;6.838;2022-08-07T05:29:38;15.73;;;12.30;;
24745;SDS011;12845;52.042;6.838;2022-08-07T05:32:06;15.68;;;12.57;;
24745;SDS011;12845;52.042;6.838;2022-08-07T05:34:34;17.60;;;12.55;;
24745;SDS011;12845;52.042;6.838;2022-08-07T05:37:04;17.15;;;13.32;;
24745;SDS011;12845;52.042;6.838;2022-08-07T05:39:30;18.65;;;13.77;;
24745;SDS011;12845;52.042;6.838;2022-08-07T05:41:55;18.85;;;14.05;;
24745;SDS011;12845;52.042;6.838;2022-08-07T05:44:21;17.27;;;13.25;;
24745;SDS011;12845;52.042;6.838;2022-08-07T05:46:47;20.77;;;13.15;;
24745;SDS011;12845;52.042;6.838;2022-08-07T05:49:13;17.58;;;13.13;;
24745;SDS011;12845;52.042;6.838;2022-08-07T05:51:45;17.60;;;13.02;;
24745;SDS011;12845;52.042;6.838;2022-08-07T05:54:11;18.15;;;12.30;;
24745;SDS011;12845;52.042;6.838;2022-08-07T05:56:38;19.45;;;13.90;;
24745;SDS011;12845;52.042;6.838;2022-08-07T05:59:05;16.27;;;13.02;;
24745;SDS011;12845;52.042;6.838;2022-08-07T06:03:59;19.50;;;13.30;;
24745;SDS011;12845;52.042;6.838;2022-08-07T06:06:28;15.65;;;12.95;;
24745;SDS011;12845;52.042;6.838;2022-08-07T06:08:53;17.88;;;14.07;;
24745;SDS011;12845;52.042;6.838;2022-08-07T06:11:19;14.68;;;11.45;;
24745;SDS011;12845;52.042;6.838;2022-08-07T06:13:45;14.65;;;11.55;;
24745;SDS011;12845;52.042;6.838;2022-08-07T06:16:10;15.63;;;12.32;;
24745;SDS011;12845;52.042;6.838;2022-08-07T06:18:40;15.90;;;12.43;;
24745;SDS011;12845;52.042;6.838;2022-08-07T06:21:05;13.18;;;10.50;;
24745;SDS011;12845;52.042;6.838;2022-08-07T06:23:31;14.18;;;10.25;;
24745;SDS011;12845;52.042;6.838;2022-08-07T06:25:57;14.85;;;10.70;;
24745;SDS011;12845;52.042;6.838;2022-08-07T06:28:24;13.45;;;10.90;;
24745;SDS011;12845;52.042;6.838;2022-08-07T06:30:50;13.23;;;10.55;;
24745;SDS011;12845;52.042;6.838;2022-08-07T06:33:15;13.77;;;10.70;;
24745;SDS011;12845;52.042;6.838;2022-08-07T06:35:44;15.05;;;11.18;;
24745;SDS011;12845;52.042;6.838;2022-08-07T06:38:09;13.25;;;10.77;;
24745;SDS011;12845;52.042;6.838;2022-08-07T06:40:50;13.18;;;9.48;;
24745;SDS011;12845;52.042;6.838;2022-08-07T06:43:19;16.48;;;11.25;;
24745;SDS011;12845;52.042;6.838;2022-08-07T06:45:46;14.03;;;11.53;;
24745;SDS011;12845;52.042;6.838;2022-08-07T06:48:12;14.27;;;11.13;;
24745;SDS011;12845;52.042;6.838;2022-08-07T06:50:38;13.40;;;10.27;;
24745;SDS011;12845;52.042;6.838;2022-08-07T06:53:06;11.55;;;10.10;;
24745;SDS011;12845;52.042;6.838;2022-08-07T06:55:32;15.13;;;10.85;;
24745;SDS011;12845;52.042;6.838;2022-08-07T06:58:00;13.60;;;9.55;;
24745;SDS011;12845;52.042;6.838;2022-08-07T07:00:27;12.85;;;8.88;;
24745;SDS011;12845;52.042;6.838;2022-08-07T07:02:58;9.88;;;8.60;;
24745;SDS011;12845;52.042;6.838;2022-08-07T07:05:24;10.52;;;8.68;;
24745;SDS011;12845;52.042;6.838;2022-08-07T07:07:55;12.30;;;10.07;;
24745;SDS011;12845;52.042;6.838;2022-08-07T07:10:26;11.38;;;8.95;;
24745;SDS011;12845;52.042;6.838;2022-08-07T07:12:54;11.98;;;9.30;;
24745;SDS011;12845;52.042;6.838;2022-08-07T07:15:30;11.57;;;9.55;;
24745;SDS011;12845;52.042;6.838;2022-08-07T07:18:11;12.68;;;9.80;;
24745;SDS011;12845;52.042;6.838;2022-08-07T07:20:49;11.43;;;9.40;;
24745;SDS011;12845;52.042;6.838;2022-08-07T07:23:18;11.23;;;9.57;;
24745;SDS011;12845;52.042;6.838;2022-08-07T07:25:44;12.27;;;10.25;;
24745;SDS011;12845;52.042;6.838;2022-08-07T07:28:17;13.70;;;8.67;;
24745;SDS011;12845;52.042;6.838;2022-08-07T07:30:51;10.32;;;8.45;;
24745;SDS011;12845;52.042;6.838;2022-08-07T07:33:18;10.25;;;8.05;;
24745;SDS011;12845;52.042;6.838;2022-08-07T07:35:47;12.43;;;8.50;;
24745;SDS011;12845;52.042;6.838;2022-08-07T07:38:17;12.18;;;8.20;;
24745;SDS011;12845;52.042;6.838;2022-08-07T07:40:45;10.27;;;8.05;;
24745;SDS011;12845;52.042;6.838;2022-08-07T07:43:12;12.73;;;7.95;;
24745;SDS011;12845;52.042;6.838;2022-08-07T07:45:40;11.27;;;7.83;;
24745;SDS011;12845;52.042;6.838;2022-08-07T07:48:08;9.93;;;7.80;;
24745;SDS011;12845;52.042;6.838;2022-08-07T07:50:37;9.27;;;7.60;;
24745;SDS011;12845;52.042;6.838;2022-08-07T07:53:05;10.98;;;7.57;;
24745;SDS011;12845;52.042;6.838;2022-08-07T07:58:01;8.90;;;7.00;;
24745;SDS011;12845;52.042;6.838;2022-08-07T08:00:27;11.20;;;7.45;;
24745;SDS011;12845;52.042;6.838;2022-08-07T08:02:55;9.73;;;7.38;;
24745;SDS011;12845;52.042;6.838;2022-08-07T08:05:23;9.25;;;6.50;;
24745;SDS011;12845;52.042;6.838;2022-08-07T08:07:49;8.27;;;5.97;;
24745;SDS011;12845;52.042;6.838;2022-08-07T08:10:14;9.60;;;5.75;;
24745;SDS011;12845;52.042;6.838;2022-08-07T08:12:43;6.88;;;4.40;;
24745;SDS011;12845;52.042;6.838;2022-08-07T08:15:10;10.25;;;6.93;;
24745;SDS011;12845;52.042;6.838;2022-08-07T08:17:36;6.70;;;5.88;;
24745;SDS011;12845;52.042;6.838;2022-08-07T08:20:03;7.97;;;5.97;;
24745;SDS011;12845;52.042;6.838;2022-08-07T08:22:32;6.90;;;5.70;;
24745;SDS011;12845;52.042;6.838;2022-08-07T08:25:19;8.95;;;5.53;;
24745;SDS011;12845;52.042;6.838;2022-08-07T08:28:03;6.15;;;4.15;;
24745;SDS011;12845;52.042;6.838;2022-08-07T08:30:33;6.30;;;3.80;;
24745;SDS011;12845;52.042;6.838;2022-08-07T08:33:00;4.60;;;3.08;;
24745;SDS011;12845;52.042;6.838;2022-08-07T08:35:27;6.25;;;3.90;;
24745;SDS011;12845;52.042;6.838;2022-08-07T08:37:55;6.10;;;3.15;;
24745;SDS011;12845;52.042;6.838;2022-08-07T08:40:32;4.55;;;2.97;;
24745;SDS011;12845;52.042;6.838;2022-08-07T08:45:32;4.80;;;2.70;;
24745;SDS011;12845;52.042;6.838;2022-08-07T08:50:36;2.97;;;1.25;;
24745;SDS011;12845;52.042;6.838;2022-08-07T08:55:36;3.00;;;1.23;;
24745;SDS011;12845;52.042;6.838;2022-08-07T09:00:44;4.13;;;1.80;;
24745;SDS011;12845;52.042;6.838;2022-08-07T09:06:24;4.45;;;1.88;;
24745;SDS011;12845;52.042;6.838;2022-08-07T09:11:46;3.92;;;1.67;;
24745;SDS011;12845;52.042;6.838;2022-08-07T09:14:33;2.65;;;1.60;;
24745;SDS011;12845;52.042;6.838;2022-08-07T09:17:14;4.07;;;1.73;;
24745;SDS011;12845;52.042;6.838;2022-08-07T09:19:54;3.45;;;1.80;;
24745;SDS011;12845;52.042;6.838;2022-08-07T09:30:08;3.85;;;1.80;;
24745;SDS011;12845;52.042;6.838;2022-08-07T09:35:26;4.80;;;1.70;;
24745;SDS011;12845;52.042;6.838;2022-08-07T09:38:11;4.00;;;1.80;;
24745;SDS011;12845;52.042;6.838;2022-08-07T09:41:05;3.72;;;1.90;;
24745;SDS011;12845;52.042;6.838;2022-08-07T09:46:35;2.95;;;1.40;;
24745;SDS011;12845;52.042;6.838;2022-08-07T09:54:50;3.65;;;1.80;;
24745;SDS011;12845;52.042;6.838;2022-08-07T10:00:07;2.50;;;1.67;;
24745;SDS011;12845;52.042;6.838;2022-08-07T10:02:50;4.28;;;1.65;;
24745;SDS011;12845;52.042;6.838;2022-08-07T10:10:58;1.98;;;1.58;;
24745;SDS011;12845;52.042;6.838;2022-08-07T10:13:39;2.45;;;1.33;;
24745;SDS011;12845;52.042;6.838;2022-08-07T10:19:08;2.85;;;1.55;;
24745;SDS011;12845;52.042;6.838;2022-08-07T10:40:37;2.58;;;1.48;;
24745;SDS011;12845;52.042;6.838;2022-08-07T10:43:11;3.78;;;1.50;;
24745;SDS011;12845;52.042;6.838;2022-08-07T10:45:48;2.65;;;1.60;;
24745;SDS011;12845;52.042;6.838;2022-08-07T10:51:09;3.25;;;1.75;;
24745;SDS011;12845;52.042;6.838;2022-08-07T10:56:24;2.88;;;1.40;;
24745;SDS011;12845;52.042;6.838;2022-08-07T10:59:14;4.03;;;1.60;;
24745;SDS011;12845;52.042;6.838;2022-08-07T11:10:33;2.17;;;1.20;;
24745;SDS011;12845;52.042;6.838;2022-08-07T11:13:10;4.22;;;1.40;;
24745;SDS011;12845;52.042;6.838;2022-08-07T11:15:42;2.60;;;1.40;;
24745;SDS011;12845;52.042;6.838;2022-08-07T11:34:54;3.20;;;1.45;;
24745;SDS011;12845;52.042;6.838;2022-08-07T11:40:19;2.67;;;1.60;;
24745;SDS011;12845;52.042;6.838;2022-08-07T11:43:17;2.90;;;1.23;;
24745;SDS011;12845;52.042;6.838;2022-08-07T11:51:19;3.63;;;1.50;;
24745;SDS011;12845;52.042;6.838;2022-08-07T12:02:34;2.85;;;1.27;;
24745;SDS011;12845;52.042;6.838;2022-08-07T12:05:45;2.92;;;1.40;;
24745;SDS011;12845;52.042;6.838;2022-08-07T12:08:25;3.15;;;1.30;;
24745;SDS011;12845;52.042;6.838;2022-08-07T12:13:39;3.08;;;1.17;;
24745;SDS011;12845;52.042;6.838;2022-08-07T12:16:26;2.78;;;1.20;;
24745;SDS011;12845;52.042;6.838;2022-08-07T12:27:55;3.17;;;1.15;;
24745;SDS011;12845;52.042;6.838;2022-08-07T12:30:25;2.38;;;1.35;;
24745;SDS011;12845;52.042;6.838;2022-08-07T12:33:14;2.20;;;1.38;;
24745;SDS011;12845;52.042;6.838;2022-08-07T12:35:44;4.72;;;1.48;;
24745;SDS011;12845;52.042;6.838;2022-08-07T12:38:12;3.85;;;1.50;;
24745;SDS011;12845;52.042;6.838;2022-08-07T12:40:39;3.83;;;1.33;;
24745;SDS011;12845;52.042;6.838;2022-08-07T12:43:07;4.20;;;1.50;;
24745;SDS011;12845;52.042;6.838;2022-08-07T12:48:31;3.38;;;1.33;;
24745;SDS011;12845;52.042;6.838;2022-08-07T12:58:06;3.80;;;1.33;;
24745;SDS011;12845;52.042;6.838;2022-08-07T13:09:18;3.53;;;1.08;;
24745;SDS011;12845;52.042;6.838;2022-08-07T13:26:06;2.47;;;1.02;;
24745;SDS011;12845;52.042;6.838;2022-08-07T13:35:38;5.70;;;1.30;;
24745;SDS011;12845;52.042;6.838;2022-08-07T13:38:11;2.15;;;1.10;;
24745;SDS011;12845;52.042;6.838;2022-08-07T13:40:45;2.90;;;1.33;;
24745;SDS011;12845;52.042;6.838;2022-08-07T13:43:22;3.08;;;1.35;;
24745;SDS011;12845;52.042;6.838;2022-08-07T13:48:16;2.03;;;1.15;;
24745;SDS011;12845;52.042;6.838;2022-08-07T13:50:44;2.65;;;1.67;;
24745;SDS011;12845;52.042;6.838;2022-08-07T13:53:12;1.95;;;1.10;;
24745;SDS011;12845;52.042;6.838;2022-08-07T13:55:43;2.28;;;1.20;;
24745;SDS011;12845;52.042;6.838;2022-08-07T13:58:10;2.30;;;1.20;;
24745;SDS011;12845;52.042;6.838;2022-08-07T14:00:58;3.13;;;1.48;;
24745;SDS011;12845;52.042;6.838;2022-08-07T14:03:31;2.47;;;1.20;;
24745;SDS011;12845;52.042;6.838;2022-08-07T14:06:03;2.65;;;1.17;;
24745;SDS011;12845;52.042;6.838;2022-08-07T14:08:30;3.55;;;1.27;;
24745;SDS011;12845;52.042;6.838;2022-08-07T14:10:58;2.27;;;0.90;;
24745;SDS011;12845;52.042;6.838;2022-08-07T14:13:25;3.83;;;1.27;;
24745;SDS011;12845;52.042;6.838;2022-08-07T14:15:57;2.25;;;1.10;;
24745;SDS011;12845;52.042;6.838;2022-08-07T14:18:31;1.88;;;1.00;;
24745;SDS011;12845;52.042;6.838;2022-08-07T14:23:35;3.63;;;1.27;;
24745;SDS011;12845;52.042;6.838;2022-08-07T14:26:06;1.90;;;1.05;;
24745;SDS011;12845;52.042;6.838;2022-08-07T14:28:36;3.42;;;1.17;;
24745;SDS011;12845;52.042;6.838;2022-08-07T14:31:07;1.85;;;1.05;;
24745;SDS011;12845;52.042;6.838;2022-08-07T14:33:35;2.50;;;1.00;;
24745;SDS011;12845;52.042;6.838;2022-08-07T14:36:04;1.85;;;1.00;;
24745;SDS011;12845;52.042;6.838;2022-08-07T14:38:31;2.00;;;1.02;;
24745;SDS011;12845;52.042;6.838;2022-08-07T14:41:01;4.07;;;1.50;;
24745;SDS011;12845;52.042;6.838;2022-08-07T14:43:33;2.58;;;1.20;;
24745;SDS011;12845;52.042;6.838;2022-08-07T14:46:04;3.63;;;1.35;;
24745;SDS011;12845;52.042;6.838;2022-08-07T14:48:32;2.53;;;1.20;;
24745;SDS011;12845;52.042;6.838;2022-08-07T14:51:00;2.15;;;1.08;;
24745;SDS011;12845;52.042;6.838;2022-08-07T14:53:31;2.15;;;1.20;;
24745;SDS011;12845;52.042;6.838;2022-08-07T14:56:02;1.70;;;1.00;;
24745;SDS011;12845;52.042;6.838;2022-08-07T14:58:30;2.35;;;1.25;;
24745;SDS011;12845;52.042;6.838;2022-08-07T15:00:59;2.55;;;1.30;;
24745;SDS011;12845;52.042;6.838;2022-08-07T15:03:27;2.97;;;1.13;;
24745;SDS011;12845;52.042;6.838;2022-08-07T15:05:53;2.78;;;1.17;;
24745;SDS011;12845;52.042;6.838;2022-08-07T15:08:34;2.88;;;1.35;;
24745;SDS011;12845;52.042;6.838;2022-08-07T15:11:07;2.85;;;1.95;;
24745;SDS011;12845;52.042;6.838;2022-08-07T15:13:37;3.42;;;2.83;;
24745;SDS011;12845;52.042;6.838;2022-08-07T15:16:18;3.50;;;1.55;;
24745;SDS011;12845;52.042;6.838;2022-08-07T15:18:49;4.82;;;2.30;;
24745;SDS011;12845;52.042;6.838;2022-08-07T15:21:19;3.35;;;1.95;;
24745;SDS011;12845;52.042;6.838;2022-08-07T15:23:53;2.63;;;1.10;;
24745;SDS011;12845;52.042;6.838;2022-08-07T15:26:22;2.10;;;1.17;;
24745;SDS011;12845;52.042;6.838;2022-08-07T15:28:55;2.40;;;1.20;;
24745;SDS011;12845;52.042;6.838;2022-08-07T15:31:23;3.00;;;1.20;;
24745;SDS011;12845;52.042;6.838;2022-08-07T15:33:55;3.80;;;1.50;;
24745;SDS011;12845;52.042;6.838;2022-08-07T15:36:24;3.35;;;1.30;;
24745;SDS011;12845;52.042;6.838;2022-08-07T15:38:51;2.65;;;1.27;;
24745;SDS011;12845;52.042;6.838;2022-08-07T15:41:20;3.60;;;1.33;;
24745;SDS011;12845;52.042;6.838;2022-08-07T15:43:58;3.72;;;1.10;;
24745;SDS011;12845;52.042;6.838;2022-08-07T15:46:27;2.22;;;1.08;;
24745;SDS011;12845;52.042;6.838;2022-08-07T15:48:54;1.90;;;1.27;;
24745;SDS011;12845;52.042;6.838;2022-08-07T15:51:23;3.90;;;2.60;;
24745;SDS011;12845;52.042;6.838;2022-08-07T15:53:52;4.35;;;2.45;;
24745;SDS011;12845;52.042;6.838;2022-08-07T15:56:34;4.72;;;2.80;;
24745;SDS011;12845;52.042;6.838;2022-08-07T15:59:04;16.52;;;13.23;;
24745;SDS011;12845;52.042;6.838;2022-08-07T16:01:34;4.18;;;2.30;;
24745;SDS011;12845;52.042;6.838;2022-08-07T16:04:04;3.15;;;1.80;;
24745;SDS011;12845;52.042;6.838;2022-08-07T16:06:36;10.18;;;7.78;;
24745;SDS011;12845;52.042;6.838;2022-08-07T16:09:54;3.85;;;1.85;;
24745;SDS011;12845;52.042;6.838;2022-08-07T16:20:28;4.43;;;1.80;;
24745;SDS011;12845;52.042;6.838;2022-08-07T16:32:01;4.63;;;3.25;;
24745;SDS011;12845;52.042;6.838;2022-08-07T16:57:29;4.43;;;2.67;;
24745;SDS011;12845;52.042;6.838;2022-08-07T17:00:16;4.05;;;2.65;;
24745;SDS011;12845;52.042;6.838;2022-08-07T17:08:46;4.95;;;2.70;;
24745;SDS011;12845;52.042;6.838;2022-08-07T17:11:22;5.28;;;3.08;;
24745;SDS011;12845;52.042;6.838;2022-08-07T17:16:25;4.38;;;2.72;;
24745;SDS011;12845;52.042;6.838;2022-08-07T17:21:43;5.85;;;2.65;;
24745;SDS011;12845;52.042;6.838;2022-08-07T17:26:55;4.43;;;2.70;;
24745;SDS011;12845;52.042;6.838;2022-08-07T17:30:08;5.00;;;2.60;;
24745;SDS011;12845;52.042;6.838;2022-08-07T17:35:14;5.45;;;2.40;;
24745;SDS011;12845;52.042;6.838;2022-08-07T17:40:37;3.72;;;2.78;;
24745;SDS011;12845;52.042;6.838;2022-08-07T17:43:13;6.05;;;3.00;;
24745;SDS011;12845;52.042;6.838;2022-08-07T17:45:48;3.42;;;2.50;;
24745;SDS011;12845;52.042;6.838;2022-08-07T17:48:22;3.78;;;2.60;;
24745;SDS011;12845;52.042;6.838;2022-08-07T17:50:57;3.90;;;2.53;;
24745;SDS011;12845;52.042;6.838;2022-08-07T17:53:27;4.22;;;2.65;;
24745;SDS011;12845;52.042;6.838;2022-08-07T17:58:33;3.47;;;2.33;;
24745;SDS011;12845;52.042;6.838;2022-08-07T18:01:10;3.42;;;2.55;;
24745;SDS011;12845;52.042;6.838;2022-08-07T18:03:42;5.25;;;2.40;;
24745;SDS011;12845;52.042;6.838;2022-08-07T18:06:15;3.42;;;2.28;;
24745;SDS011;12845;52.042;6.838;2022-08-07T18:08:50;2.95;;;2.03;;
24745;SDS011;12845;52.042;6.838;2022-08-07T18:11:20;3.70;;;2.30;;
24745;SDS011;12845;52.042;6.838;2022-08-07T18:16:54;4.72;;;2.42;;
24745;SDS011;12845;52.042;6.838;2022-08-07T18:21:57;4.40;;;2.60;;
24745;SDS011;12845;52.042;6.838;2022-08-07T18:26:58;5.47;;;2.43;;
24745;SDS011;12845;52.042;6.838;2022-08-07T18:37:01;3.00;;;2.17;;
24745;SDS011;12845;52.042;6.838;2022-08-07T18:39:47;4.85;;;2.20;;
24745;SDS011;12845;52.042;6.838;2022-08-07T18:42:38;3.38;;;2.10;;
24745;SDS011;12845;52.042;6.838;2022-08-07T18:45:19;4.88;;;2.20;;
24745;SDS011;12845;52.042;6.838;2022-08-07T18:48:12;3.80;;;2.20;;
24745;SDS011;12845;52.042;6.838;2022-08-07T19:02:24;4.28;;;2.35;;
24745;SDS011;12845;52.042;6.838;2022-08-07T19:05:19;2.83;;;2.00;;
24745;SDS011;12845;52.042;6.838;2022-08-07T19:10:57;3.22;;;2.20;;
24745;SDS011;12845;52.042;6.838;2022-08-07T19:13:35;2.97;;;2.13;;
24745;SDS011;12845;52.042;6.838;2022-08-07T19:19:01;3.15;;;2.22;;
24745;SDS011;12845;52.042;6.838;2022-08-07T19:24:03;3.47;;;1.92;;
24745;SDS011;12845;52.042;6.838;2022-08-07T19:26:34;4.00;;;2.38;;
24745;SDS011;12845;52.042;6.838;2022-08-07T19:29:06;3.13;;;2.05;;
24745;SDS011;12845;52.042;6.838;2022-08-07T19:31:33;4.47;;;2.30;;
24745;SDS011;12845;52.042;6.838;2022-08-07T19:34:03;2.85;;;2.13;;
24745;SDS011;12845;52.042;6.838;2022-08-07T19:36:37;2.40;;;1.70;;
24745;SDS011;12845;52.042;6.838;2022-08-07T19:39:04;3.15;;;2.22;;
24745;SDS011;12845;52.042;6.838;2022-08-07T19:41:33;4.55;;;2.10;;
24745;SDS011;12845;52.042;6.838;2022-08-07T19:44:04;4.70;;;2.40;;
24745;SDS011;12845;52.042;6.838;2022-08-07T19:46:37;3.60;;;2.25;;
24745;SDS011;12845;52.042;6.838;2022-08-07T19:51:41;5.95;;;2.50;;